Nocc Pamplona — LALG5 — position and weather

sailwx.info

Track history (hours):
 
Tides and Currents Weather Stations Pressure Air Temp Water Temp Dewpoint Dewpoint Depression Visibility Wind Speed Wind Dir Waves Ship Positions

Nocc Pamplona

Last reported at 2014-Dec-18 08:12 UTC. Time now 2014-Dec-20 18:37 UTC.
Position N 21°54' E 113°51'.

Length 177 m; draft 7.4 m.

Type: Cargo ship. MMSI: 257349000.

Date/timePositionNaut miles runAvg speedWind from/ knotsBaromVisibWave heightAir tempDewpointWater temp
2014-Dec-18 08:12N 21°54' E 113°51'1015.5
2014-Dec-18 07:33N 22°04' E 113°49'1111.5
2014-Dec-18 06:33N 22°15' E 113°48'1515.2
2014-Dec-18 05:33N 22°30' E 113°45'1414.0
2014-Dec-18 04:33N 22°44' E 113°40'1110.6
2014-Dec-18 03:33N 22°53' E 113°34'8 8.2
2014-Dec-18 02:33N 23°01' E 113°32'0 0.0
2014-Dec-18 01:22N 23°01' E 113°32'0 0.0
2014-Dec-18 00:22N 23°01' E 113°32'0 0.0
2014-Dec-17 23:28N 23°01' E 113°32'0 0.0
2014-Dec-17 22:16N 23°01' E 113°32'0 0.0
2014-Dec-17 21:28N 23°01' E 113°32'0 0.0
2014-Dec-17 20:16N 23°01' E 113°32'0 0.0
2014-Dec-17 19:28N 23°01' E 113°32'0 0.0
2014-Dec-17 18:22N 23°01' E 113°32'0 0.0
2014-Dec-17 17:28N 23°01' E 113°32'0 0.0
2014-Dec-17 16:28N 23°01' E 113°32'0 0.0
2014-Dec-17 15:28N 23°01' E 113°32'0 0.0
2014-Dec-17 14:24N 23°01' E 113°32'5 5.9
2014-Dec-17 13:32N 22°56' E 113°33'1110.4
2014-Dec-17 12:27N 22°46' E 113°39'1112.0
2014-Dec-17 11:31N 22°35' E 113°43'1414.7
2014-Dec-17 10:33N 22°22' E 113°47'1413.6
2014-Dec-17 09:33N 22°08' E 113°48'5 4.4
2014-Dec-17 08:32N 22°06' E 113°52'0 0.1
2014-Dec-17 05:27N 22°05' E 113°52'0 0.0
2014-Dec-17 04:15N 22°05' E 113°52'0 0.1
2014-Dec-17 03:27N 22°05' E 113°52'0 0.1
2014-Dec-17 02:27N 22°05' E 113°52'0 0.0
2014-Dec-17 00:15N 22°05' E 113°53'0 0.1
2014-Dec-16 23:33N 22°05' E 113°52'0 0.1
2014-Dec-16 22:21N 22°05' E 113°52'0 0.1
2014-Dec-16 21:15N 22°05' E 113°52'0 0.0
2014-Dec-16 20:33N 22°05' E 113°52'0 0.1
2014-Dec-16 19:33N 22°05' E 113°52'0 0.1
2014-Dec-16 18:33N 22°05' E 113°52'0 0.1
2014-Dec-16 17:33N 22°05' E 113°53'0 0.1
2014-Dec-16 16:33N 22°05' E 113°52'0 0.0
2014-Dec-16 15:33N 22°05' E 113°52'0 0.1
2014-Dec-16 14:33N 22°05' E 113°52'0 0.0
2014-Dec-16 13:15N 22°05' E 113°52'0 0.1
2014-Dec-16 12:15N 22°05' E 113°52'0 0.0
2014-Dec-16 11:21N 22°05' E 113°52'0 0.0
2014-Dec-16 10:27N 22°05' E 113°52'0 0.1
2014-Dec-16 09:33N 22°05' E 113°53'0 0.1
2014-Dec-16 08:27N 22°05' E 113°52'3 3.1
2014-Dec-16 07:32N 22°06' E 113°55'8 7.7
2014-Dec-16 06:32N 22°08' E 114°03'8 7.6
2014-Dec-16 05:32N 22°13' E 114°10'8 7.8
2014-Dec-16 04:33N 22°19' E 114°05'1 0.1
2014-Dec-15 20:20N 22°20' E 114°05'8 8.7
2014-Dec-15 19:23N 22°13' E 114°10'9 8.3
2014-Dec-15 18:19N 22°08' E 114°18'23414.0
2014-Dec-15 01:33N 23°43' E 118°11'1918.5
2014-Dec-15 00:33N 23°55' E 118°27'2118.3
2014-Dec-14 23:24N 24°08' E 118°45'3618.3
2014-Dec-14 21:26N 24°31' E 119°16'  
2014-Dec-12 09:33N 34°08' E 134°57'1515.1
2014-Dec-12 08:33N 34°22' E 135°02'1717.2
2014-Dec-12 07:33N 34°34' E 135°18'6 5.4
2014-Dec-12 06:22N 34°37' E 135°24'0 0.0
2014-Dec-12 05:22N 34°37' E 135°24'0 0.0
2014-Dec-12 04:29N 34°37' E 135°24'0 0.0
2014-Dec-12 03:22N 34°37' E 135°24'0 0.0
2014-Dec-12 02:33N 34°37' E 135°24'5 5.3
2014-Dec-12 01:33N 34°35' E 135°18'1111.1
2014-Dec-12 00:33N 34°27' E 135°09'1616.1
2014-Dec-11 23:33N 34°13' E 134°59'10 9.7
2014-Dec-11 22:33N 34°04' E 134°57'10 9.5
2014-Dec-11 21:31N 33°54' E 134°57'24614.4
2014-Dec-11 04:22N 35°05' E 139°44'1012.7
2014-Dec-11 03:33N 35°15' E 139°46'1111.2
2014-Dec-11 02:34N 35°25' E 139°41'0 0.5
2014-Dec-11 01:33N 35°25' E 139°41'0 0.0
2014-Dec-11 00:33N 35°25' E 139°41'3 0.4
2014-Dec-10 18:18N 35°26' E 139°44'0 0.0
2014-Dec-10 17:33N 35°26' E 139°44'0 0.0
2014-Dec-10 16:33N 35°26' E 139°44'0 0.0
2014-Dec-10 15:33N 35°26' E 139°44'0 0.1
2014-Dec-10 14:33N 35°26' E 139°44'0 0.1
2014-Dec-10 13:33N 35°26' E 139°44'0 0.0
2014-Dec-10 12:33N 35°26' E 139°44'0 0.0
2014-Dec-10 11:33N 35°26' E 139°44'0 0.0
2014-Dec-10 10:33N 35°26' E 139°44'0 0.0
2014-Dec-10 09:33N 35°26' E 139°44'0 0.0
2014-Dec-10 08:33N 35°26' E 139°44'1 1.4
2014-Dec-10 07:33N 35°26' E 139°42'1 1.0
2014-Dec-10 06:32N 35°27' E 139°41'0 0.0
2014-Dec-10 05:32N 35°27' E 139°41'0 0.0
2014-Dec-10 04:32N 35°27' E 139°41'0 0.0
2014-Dec-10 03:32N 35°27' E 139°41'0 0.0
2014-Dec-10 02:32N 35°27' E 139°41'0 0.0
2014-Dec-10 01:32N 35°27' E 139°41'0 0.0
2014-Dec-10 00:32N 35°27' E 139°41'0 0.0
2014-Dec-09 23:32N 35°27' E 139°41'0 0.0
2014-Dec-09 22:32N 35°27' E 139°41'0 0.0
2014-Dec-09 21:32N 35°27' E 139°41'0 0.0
2014-Dec-09 20:32N 35°27' E 139°41'0 0.0
2014-Dec-09 19:32N 35°27' E 139°41'0 0.0
2014-Dec-09 18:32N 35°27' E 139°41'0 0.0
2014-Dec-09 17:32N 35°27' E 139°41'0 0.0
2014-Dec-09 16:32N 35°27' E 139°41'0 0.0
2014-Dec-09 15:32N 35°27' E 139°41'0 0.0
2014-Dec-09 14:32N 35°27' E 139°41'0 0.0
2014-Dec-09 13:32N 35°27' E 139°41'0 0.0
2014-Dec-09 12:29N 35°27' E 139°41'0 0.0
2014-Dec-09 11:32N 35°27' E 139°41'0 0.0
2014-Dec-09 10:32N 35°27' E 139°41'0 0.0
2014-Dec-09 09:32N 35°27' E 139°41'0 0.0
2014-Dec-09 08:32N 35°27' E 139°41'0 0.0
2014-Dec-09 07:32N 35°27' E 139°41'0 0.0
2014-Dec-09 06:32N 35°27' E 139°41'0 0.0
2014-Dec-09 05:32N 35°27' E 139°41'0 0.0
2014-Dec-09 04:32N 35°27' E 139°41'0 0.0
2014-Dec-09 03:32N 35°27' E 139°41'0 0.0
2014-Dec-09 02:32N 35°27' E 139°41'0 0.0
2014-Dec-09 01:32N 35°27' E 139°41'0 0.0
2014-Dec-09 00:32N 35°27' E 139°41'0 0.0
2014-Dec-08 23:32N 35°27' E 139°41'0 0.0
2014-Dec-08 22:32N 35°27' E 139°41'0 0.0
2014-Dec-08 21:32N 35°27' E 139°41'0 0.0
2014-Dec-08 20:32N 35°27' E 139°41'0 0.0
2014-Dec-08 19:32N 35°27' E 139°41'0 0.0
2014-Dec-08 18:32N 35°27' E 139°41'0 0.0
2014-Dec-08 17:29N 35°27' E 139°41'0 0.0
2014-Dec-08 16:32N 35°27' E 139°41'0 0.0
2014-Dec-08 15:32N 35°27' E 139°41'0 0.0
2014-Dec-08 14:32N 35°27' E 139°41'0 0.0
2014-Dec-08 13:32N 35°27' E 139°41'0 0.0
2014-Dec-08 12:32N 35°27' E 139°41'0 0.0
2014-Dec-08 11:32N 35°27' E 139°41'0 0.0
2014-Dec-08 10:32N 35°27' E 139°41'0 0.0
2014-Dec-08 09:33N 35°27' E 139°41'0 0.0
2014-Dec-08 08:34N 35°27' E 139°41'  
Track history (hours):
 
Tides and Currents Weather Stations Pressure Air Temp Water Temp Dewpoint Dewpoint Depression Visibility Wind Speed Wind Dir Waves Ship Positions

Nocc Pamplona

Last reported at 2014-Dec-18 08:12 UTC. Time now 2014-Dec-20 18:37 UTC.
Position N 21°54' E 113°51'.

Length 177 m; draft 7.4 m.

Type: Cargo ship. MMSI: 257349000.

Date/timePositionNaut miles runAvg speedWind from/ knotsBaromVisibWave heightAir tempDewpointWater temp
2014-Dec-18 08:12N 21°54' E 113°51'1015.5
2014-Dec-18 07:33N 22°04' E 113°49'1111.5
2014-Dec-18 06:33N 22°15' E 113°48'1515.2
2014-Dec-18 05:33N 22°30' E 113°45'1414.0
2014-Dec-18 04:33N 22°44' E 113°40'1110.6
2014-Dec-18 03:33N 22°53' E 113°34'8 8.2
2014-Dec-18 02:33N 23°01' E 113°32'0 0.0
2014-Dec-18 01:22N 23°01' E 113°32'0 0.0
2014-Dec-18 00:22N 23°01' E 113°32'0 0.0
2014-Dec-17 23:28N 23°01' E 113°32'0 0.0
2014-Dec-17 22:16N 23°01' E 113°32'0 0.0
2014-Dec-17 21:28N 23°01' E 113°32'0 0.0
2014-Dec-17 20:16N 23°01' E 113°32'0 0.0
2014-Dec-17 19:28N 23°01' E 113°32'0 0.0
2014-Dec-17 18:22N 23°01' E 113°32'0 0.0
2014-Dec-17 17:28N 23°01' E 113°32'0 0.0
2014-Dec-17 16:28N 23°01' E 113°32'0 0.0
2014-Dec-17 15:28N 23°01' E 113°32'0 0.0
2014-Dec-17 14:24N 23°01' E 113°32'5 5.9
2014-Dec-17 13:32N 22°56' E 113°33'1110.4
2014-Dec-17 12:27N 22°46' E 113°39'1112.0
2014-Dec-17 11:31N 22°35' E 113°43'1414.7
2014-Dec-17 10:33N 22°22' E 113°47'1413.6
2014-Dec-17 09:33N 22°08' E 113°48'5 4.4
2014-Dec-17 08:32N 22°06' E 113°52'0 0.1
2014-Dec-17 05:27N 22°05' E 113°52'0 0.0
2014-Dec-17 04:15N 22°05' E 113°52'0 0.1
2014-Dec-17 03:27N 22°05' E 113°52'0 0.1
2014-Dec-17 02:27N 22°05' E 113°52'0 0.0
2014-Dec-17 00:15N 22°05' E 113°53'0 0.1
2014-Dec-16 23:33N 22°05' E 113°52'0 0.1
2014-Dec-16 22:21N 22°05' E 113°52'0 0.1
2014-Dec-16 21:15N 22°05' E 113°52'0 0.0
2014-Dec-16 20:33N 22°05' E 113°52'0 0.1
2014-Dec-16 19:33N 22°05' E 113°52'0 0.1
2014-Dec-16 18:33N 22°05' E 113°52'0 0.1
2014-Dec-16 17:33N 22°05' E 113°53'0 0.1
2014-Dec-16 16:33N 22°05' E 113°52'0 0.0
2014-Dec-16 15:33N 22°05' E 113°52'0 0.1
2014-Dec-16 14:33N 22°05' E 113°52'0 0.0
2014-Dec-16 13:15N 22°05' E 113°52'0 0.1
2014-Dec-16 12:15N 22°05' E 113°52'0 0.0
2014-Dec-16 11:21N 22°05' E 113°52'0 0.0
2014-Dec-16 10:27N 22°05' E 113°52'0 0.1
2014-Dec-16 09:33N 22°05' E 113°53'0 0.1
2014-Dec-16 08:27N 22°05' E 113°52'3 3.1
2014-Dec-16 07:32N 22°06' E 113°55'8 7.7
2014-Dec-16 06:32N 22°08' E 114°03'8 7.6
2014-Dec-16 05:32N 22°13' E 114°10'8 7.8
2014-Dec-16 04:33N 22°19' E 114°05'1 0.1
2014-Dec-15 20:20N 22°20' E 114°05'8 8.7
2014-Dec-15 19:23N 22°13' E 114°10'9 8.3
2014-Dec-15 18:19N 22°08' E 114°18'23414.0
2014-Dec-15 01:33N 23°43' E 118°11'1918.5
2014-Dec-15 00:33N 23°55' E 118°27'2118.3
2014-Dec-14 23:24N 24°08' E 118°45'3618.3
2014-Dec-14 21:26N 24°31' E 119°16'  
2014-Dec-12 09:33N 34°08' E 134°57'1515.1
2014-Dec-12 08:33N 34°22' E 135°02'1717.2
2014-Dec-12 07:33N 34°34' E 135°18'6 5.4
2014-Dec-12 06:22N 34°37' E 135°24'0 0.0
2014-Dec-12 05:22N 34°37' E 135°24'0 0.0
2014-Dec-12 04:29N 34°37' E 135°24'0 0.0
2014-Dec-12 03:22N 34°37' E 135°24'0 0.0
2014-Dec-12 02:33N 34°37' E 135°24'5 5.3
2014-Dec-12 01:33N 34°35' E 135°18'1111.1
2014-Dec-12 00:33N 34°27' E 135°09'1616.1
2014-Dec-11 23:33N 34°13' E 134°59'10 9.7
2014-Dec-11 22:33N 34°04' E 134°57'10 9.5
2014-Dec-11 21:31N 33°54' E 134°57'24614.4
2014-Dec-11 04:22N 35°05' E 139°44'1012.7
2014-Dec-11 03:33N 35°15' E 139°46'1111.2
2014-Dec-11 02:34N 35°25' E 139°41'0 0.5
2014-Dec-11 01:33N 35°25' E 139°41'0 0.0
2014-Dec-11 00:33N 35°25' E 139°41'3 0.4
2014-Dec-10 18:18N 35°26' E 139°44'0 0.0
2014-Dec-10 17:33N 35°26' E 139°44'0 0.0
2014-Dec-10 16:33N 35°26' E 139°44'0 0.0
2014-Dec-10 15:33N 35°26' E 139°44'0 0.1
2014-Dec-10 14:33N 35°26' E 139°44'0 0.1
2014-Dec-10 13:33N 35°26' E 139°44'0 0.0
2014-Dec-10 12:33N 35°26' E 139°44'0 0.0
2014-Dec-10 11:33N 35°26' E 139°44'0 0.0
2014-Dec-10 10:33N 35°26' E 139°44'0 0.0
2014-Dec-10 09:33N 35°26' E 139°44'0 0.0
2014-Dec-10 08:33N 35°26' E 139°44'1 1.4
2014-Dec-10 07:33N 35°26' E 139°42'1 1.0
2014-Dec-10 06:32N 35°27' E 139°41'0 0.0
2014-Dec-10 05:32N 35°27' E 139°41'0 0.0
2014-Dec-10 04:32N 35°27' E 139°41'0 0.0
2014-Dec-10 03:32N 35°27' E 139°41'0 0.0
2014-Dec-10 02:32N 35°27' E 139°41'0 0.0
2014-Dec-10 01:32N 35°27' E 139°41'0 0.0
2014-Dec-10 00:32N 35°27' E 139°41'0 0.0
2014-Dec-09 23:32N 35°27' E 139°41'0 0.0
2014-Dec-09 22:32N 35°27' E 139°41'0 0.0
2014-Dec-09 21:32N 35°27' E 139°41'0 0.0
2014-Dec-09 20:32N 35°27' E 139°41'0 0.0
2014-Dec-09 19:32N 35°27' E 139°41'0 0.0
2014-Dec-09 18:32N 35°27' E 139°41'0 0.0
2014-Dec-09 17:32N 35°27' E 139°41'0 0.0
2014-Dec-09 16:32N 35°27' E 139°41'0 0.0
2014-Dec-09 15:32N 35°27' E 139°41'0 0.0
2014-Dec-09 14:32N 35°27' E 139°41'0 0.0
2014-Dec-09 13:32N 35°27' E 139°41'0 0.0
2014-Dec-09 12:29N 35°27' E 139°41'0 0.0
2014-Dec-09 11:32N 35°27' E 139°41'0 0.0
2014-Dec-09 10:32N 35°27' E 139°41'0 0.0
2014-Dec-09 09:32N 35°27' E 139°41'0 0.0
2014-Dec-09 08:32N 35°27' E 139°41'0 0.0
2014-Dec-09 07:32N 35°27' E 139°41'0 0.0
2014-Dec-09 06:32N 35°27' E 139°41'0 0.0
2014-Dec-09 05:32N 35°27' E 139°41'0 0.0
2014-Dec-09 04:32N 35°27' E 139°41'0 0.0
2014-Dec-09 03:32N 35°27' E 139°41'0 0.0
2014-Dec-09 02:32N 35°27' E 139°41'0 0.0
2014-Dec-09 01:32N 35°27' E 139°41'0 0.0
2014-Dec-09 00:32N 35°27' E 139°41'0 0.0
2014-Dec-08 23:32N 35°27' E 139°41'0 0.0
2014-Dec-08 22:32N 35°27' E 139°41'0 0.0
2014-Dec-08 21:32N 35°27' E 139°41'0 0.0
2014-Dec-08 20:32N 35°27' E 139°41'0 0.0
2014-Dec-08 19:32N 35°27' E 139°41'0 0.0
2014-Dec-08 18:32N 35°27' E 139°41'0 0.0
2014-Dec-08 17:29N 35°27' E 139°41'0 0.0
2014-Dec-08 16:32N 35°27' E 139°41'0 0.0
2014-Dec-08 15:32N 35°27' E 139°41'0 0.0
2014-Dec-08 14:32N 35°27' E 139°41'0 0.0
2014-Dec-08 13:32N 35°27' E 139°41'0 0.0
2014-Dec-08 12:32N 35°27' E 139°41'0 0.0
2014-Dec-08 11:32N 35°27' E 139°41'0 0.0
2014-Dec-08 10:32N 35°27' E 139°41'0 0.0
2014-Dec-08 09:33N 35°27' E 139°41'0 0.0
2014-Dec-08 08:34N 35°27' E 139°41'  

Dump ship's entire track history